createdAt,value
2022-08-11T00:23:37.908Z,22.86
2022-08-11T00:52:49.707Z,23.15
2022-08-11T01:21:49.099Z,22.34
2022-08-11T01:50:43.142Z,22.57
2022-08-11T02:19:57.563Z,22.75
2022-08-11T02:48:29.797Z,23
2022-08-11T03:17:35.450Z,23.01
2022-08-11T03:46:47.259Z,22.83
2022-08-11T04:15:37.133Z,20.71
2022-08-11T04:44:33.289Z,18.96
2022-08-11T05:13:44.221Z,18.98
2022-08-11T05:42:56.278Z,19.23
2022-08-11T06:12:10.434Z,19.9
2022-08-11T06:40:51.911Z,21.61
2022-08-11T07:10:20.292Z,23.06
2022-08-11T07:39:53.145Z,24.44
2022-08-11T08:09:19.046Z,26.18
2022-08-11T08:38:47.338Z,27.63
2022-08-11T09:08:22.530Z,29.53
2022-08-11T09:37:53.933Z,31.02
2022-08-11T10:06:33.256Z,31.43
2022-08-11T10:35:13.258Z,32.07
2022-08-11T11:04:40.049Z,33.1
2022-08-11T11:34:12.429Z,33.25
2022-08-11T12:02:50.643Z,33.65
2022-08-11T12:32:11.975Z,33.95
2022-08-11T13:01:36.809Z,34.67
2022-08-11T13:30:47.683Z,35.14
2022-08-11T13:59:58.946Z,36.09
2022-08-11T14:28:41.935Z,35.72
2022-08-11T14:57:13.640Z,35.66
2022-08-11T15:26:34.014Z,36.2
2022-08-11T15:55:31.053Z,35.75
2022-08-11T16:25:58.378Z,36.28
2022-08-11T16:53:48.844Z,36.04
2022-08-11T17:22:22.574Z,37.38
2022-08-11T17:51:32.233Z,34.48
2022-08-11T18:22:35.875Z,32.83
2022-08-11T18:51:31.207Z,31.82
2022-08-11T19:19:54.861Z,30.7
2022-08-11T19:48:52.907Z,29.62
2022-08-11T20:17:43.906Z,28.93
2022-08-11T20:46:32.745Z,28.03
2022-08-11T21:15:47.704Z,27.14
2022-08-11T21:44:13.126Z,26.2
2022-08-11T22:13:04.287Z,24.74
2022-08-11T22:42:02.752Z,23.57
2022-08-11T23:11:03.019Z,23.39
2022-08-11T23:40:05.446Z,22.37
